createdAt,value
2023-09-04T00:01:40.989Z,16.90
2023-09-04T00:04:08.081Z,16.80
2023-09-04T00:06:35.306Z,16.80
2023-09-04T00:09:02.011Z,16.80
2023-09-04T00:11:28.908Z,16.80
2023-09-04T00:13:55.670Z,16.70
2023-09-04T00:16:22.474Z,16.80
2023-09-04T00:18:49.205Z,16.70
2023-09-04T00:21:16.793Z,16.70
2023-09-04T00:23:43.522Z,16.70
2023-09-04T00:26:10.241Z,16.70
2023-09-04T00:28:36.930Z,16.70
2023-09-04T00:31:03.672Z,16.60
2023-09-04T00:33:30.356Z,16.70
2023-09-04T00:35:57.077Z,16.60
2023-09-04T00:38:23.851Z,16.60
2023-09-04T00:40:50.653Z,16.60
2023-09-04T00:43:17.379Z,16.50
2023-09-04T00:45:45.309Z,16.50
2023-09-04T00:48:12.754Z,16.50
2023-09-04T00:50:42.129Z,16.50
2023-09-04T00:53:10.994Z,16.40
2023-09-04T00:55:38.963Z,16.40
2023-09-04T00:58:05.766Z,16.40
2023-09-04T01:00:32.577Z,16.30
2023-09-04T01:03:01.357Z,16.30
2023-09-04T01:05:30.780Z,16.30
2023-09-04T01:07:57.594Z,16.30
2023-09-04T01:10:24.534Z,16.20
2023-09-04T01:12:56.158Z,16.20
2023-09-04T01:15:25.181Z,16.20
2023-09-04T01:17:53.756Z,16.20
2023-09-04T01:20:25.313Z,16.10
2023-09-04T01:22:52.453Z,16.10
2023-09-04T01:25:19.413Z,16.00
2023-09-04T01:28:01.820Z,16.00
2023-09-04T01:30:49.220Z,16.00
2023-09-04T01:33:20.893Z,16.00
2023-09-04T01:35:50.360Z,15.90
2023-09-04T01:38:17.391Z,15.90
2023-09-04T01:40:44.177Z,15.90
2023-09-04T01:43:10.869Z,15.90
2023-09-04T01:45:37.615Z,15.80
2023-09-04T01:48:04.832Z,15.90
2023-09-04T01:50:31.510Z,15.90
2023-09-04T01:52:58.255Z,15.80
2023-09-04T01:55:24.959Z,15.90
2023-09-04T01:57:51.725Z,15.90
2023-09-04T02:00:18.641Z,15.90
2023-09-04T02:02:45.503Z,15.90
2023-09-04T02:05:12.296Z,15.80
2023-09-04T02:07:38.997Z,15.80
2023-09-04T02:10:06.260Z,15.80
2023-09-04T02:12:32.942Z,15.70
2023-09-04T02:14:59.639Z,15.70
2023-09-04T02:17:26.353Z,15.70
2023-09-04T02:19:53.084Z,15.60
2023-09-04T02:22:20.155Z,15.60
2023-09-04T02:24:48.343Z,15.60
2023-09-04T02:27:15.259Z,15.50
2023-09-04T02:29:42.104Z,15.60
2023-09-04T02:32:08.783Z,15.50
2023-09-04T02:34:35.478Z,15.50
2023-09-04T02:37:02.170Z,15.50
2023-09-04T02:39:28.858Z,15.60
2023-09-04T02:41:55.559Z,15.50
2023-09-04T02:44:22.286Z,15.40
2023-09-04T02:46:48.942Z,15.40
2023-09-04T02:49:15.732Z,15.50
2023-09-04T02:51:42.410Z,15.40
2023-09-04T02:54:09.509Z,15.40
2023-09-04T02:56:36.218Z,15.40
2023-09-04T02:59:02.931Z,15.30
2023-09-04T03:01:29.692Z,15.30
2023-09-04T03:03:56.405Z,15.30
2023-09-04T03:06:23.125Z,15.30
2023-09-04T03:08:49.862Z,15.30
2023-09-04T03:11:16.561Z,15.20
2023-09-04T03:13:43.446Z,15.20
2023-09-04T03:16:10.201Z,15.20
2023-09-04T03:18:36.994Z,15.20
2023-09-04T03:21:04.022Z,15.10
2023-09-04T03:23:30.714Z,15.10
2023-09-04T03:25:57.819Z,15.10
2023-09-04T03:28:24.708Z,15.20
2023-09-04T03:30:51.721Z,15.20
2023-09-04T03:33:18.458Z,15.20
2023-09-04T03:35:45.156Z,15.20
2023-09-04T03:38:11.922Z,15.10
2023-09-04T03:40:38.907Z,15.10
2023-09-04T03:43:05.671Z,15.10
2023-09-04T03:45:34.212Z,15.00
2023-09-04T03:48:01.447Z,15.00
2023-09-04T03:50:28.361Z,15.00
2023-09-04T03:52:55.117Z,15.00
2023-09-04T03:55:21.991Z,15.00
2023-09-04T03:57:52.226Z,15.00
2023-09-04T04:00:19.943Z,15.00
2023-09-04T04:02:48.914Z,15.00
2023-09-04T04:05:17.205Z,15.00
2023-09-04T04:07:44.012Z,15.10
2023-09-04T04:10:11.453Z,15.10
2023-09-04T04:12:38.457Z,15.00
2023-09-04T04:15:07.274Z,15.10
2023-09-04T04:17:35.524Z,15.00
2023-09-04T04:20:04.542Z,15.00
2023-09-04T04:22:31.267Z,15.00
2023-09-04T04:24:58.012Z,15.00
2023-09-04T04:27:24.794Z,14.90
2023-09-04T04:29:54.800Z,14.90
2023-09-04T04:32:21.580Z,14.90
2023-09-04T04:34:48.349Z,14.90
2023-09-04T04:37:15.066Z,14.90
2023-09-04T04:39:41.787Z,14.90
2023-09-04T04:42:08.535Z,14.90
2023-09-04T04:44:35.292Z,14.90
2023-09-04T04:47:02.053Z,14.90
2023-09-04T04:49:28.746Z,14.90
2023-09-04T04:51:55.772Z,14.90
2023-09-04T04:54:22.561Z,14.80
2023-09-04T04:56:49.867Z,14.80
2023-09-04T04:59:17.084Z,14.80
2023-09-04T05:01:44.078Z,14.80
2023-09-04T05:04:11.127Z,14.90
2023-09-04T05:06:37.993Z,14.80
2023-09-04T05:09:05.371Z,14.80
2023-09-04T05:11:34.479Z,14.90
2023-09-04T05:14:02.724Z,14.90
2023-09-04T05:16:29.431Z,14.90
2023-09-04T05:18:56.184Z,14.90
2023-09-04T05:21:23.018Z,14.90
2023-09-04T05:23:49.832Z,14.90
2023-09-04T05:26:16.641Z,14.90
2023-09-04T05:28:43.347Z,14.90
2023-09-04T05:31:10.379Z,14.90
2023-09-04T05:33:37.124Z,15.00
2023-09-04T05:36:04.230Z,15.00
2023-09-04T05:38:30.980Z,15.00
2023-09-04T05:40:59.348Z,15.00
2023-09-04T05:43:26.131Z,15.00
2023-09-04T05:45:53.222Z,15.00
2023-09-04T05:48:19.965Z,15.00
2023-09-04T05:50:49.243Z,15.10
2023-09-04T05:53:16.616Z,15.10
2023-09-04T05:55:43.668Z,15.20
2023-09-04T05:58:12.855Z,15.20
2023-09-04T06:00:39.757Z,15.20
2023-09-04T06:03:06.589Z,15.30
2023-09-04T06:05:33.401Z,15.30
2023-09-04T06:08:00.118Z,15.30
2023-09-04T06:10:26.990Z,15.30
2023-09-04T06:12:53.983Z,15.30
2023-09-04T06:15:20.873Z,15.50
2023-09-04T06:17:47.593Z,15.50
2023-09-04T06:20:14.400Z,15.50
2023-09-04T06:22:41.272Z,15.60
2023-09-04T06:25:08.263Z,15.70
2023-09-04T06:27:34.940Z,15.70
2023-09-04T06:30:04.696Z,15.70
2023-09-04T06:32:31.533Z,15.80
2023-09-04T06:34:58.255Z,15.90
2023-09-04T06:37:26.158Z,16.00
2023-09-04T06:39:52.881Z,16.10
2023-09-04T06:42:19.928Z,16.10
2023-09-04T06:44:46.626Z,16.10
2023-09-04T06:47:13.372Z,16.20
2023-09-04T06:49:40.063Z,16.30
2023-09-04T06:52:07.024Z,16.30
2023-09-04T06:54:33.710Z,16.30
2023-09-04T06:57:00.941Z,16.40
2023-09-04T06:59:27.681Z,16.50
2023-09-04T07:01:54.396Z,16.60
2023-09-04T07:04:21.104Z,16.70
2023-09-04T07:06:47.798Z,16.80
2023-09-04T07:09:14.477Z,16.90
2023-09-04T07:11:41.140Z,17.00
2023-09-04T07:14:07.838Z,17.10
2023-09-04T07:16:42.238Z,17.20
2023-09-04T07:19:17.179Z,17.30
2023-09-04T07:21:44.000Z,17.40
2023-09-04T07:24:10.816Z,17.50
2023-09-04T07:26:37.530Z,17.60
2023-09-04T07:29:04.296Z,17.80
2023-09-04T07:31:31.308Z,17.90
2023-09-04T07:33:58.654Z,18.00
2023-09-04T07:36:25.706Z,18.20
2023-09-04T07:38:52.415Z,18.30
2023-09-04T07:41:19.309Z,18.50
2023-09-04T07:43:46.154Z,18.90
2023-09-04T07:46:12.993Z,19.40
2023-09-04T07:48:41.212Z,19.60
2023-09-04T07:51:23.389Z,19.70
2023-09-04T07:53:54.686Z,19.70
2023-09-04T07:56:25.060Z,19.90
2023-09-04T07:58:52.000Z,20.20
2023-09-04T08:01:18.794Z,21.00
2023-09-04T08:03:45.615Z,21.70
2023-09-04T08:06:12.373Z,22.30
2023-09-04T08:08:39.188Z,22.70
2023-09-04T08:11:05.928Z,22.70
2023-09-04T08:13:32.669Z,22.40
2023-09-04T08:15:59.378Z,22.20
2023-09-04T08:18:26.094Z,22.00
2023-09-04T08:20:52.766Z,21.80
2023-09-04T08:23:19.517Z,21.60
2023-09-04T08:25:46.227Z,21.50
2023-09-04T08:28:12.938Z,21.40
2023-09-04T08:30:39.777Z,21.50
2023-09-04T08:33:06.804Z,21.50
2023-09-04T08:35:33.548Z,21.50
2023-09-04T08:38:04.407Z,21.50
2023-09-04T08:40:31.889Z,21.70
2023-09-04T08:42:59.381Z,21.80
2023-09-04T08:45:27.133Z,21.90
2023-09-04T08:47:55.922Z,21.90
2023-09-04T08:50:24.352Z,21.90
2023-09-04T08:52:52.025Z,22.10
2023-09-04T08:55:21.305Z,22.20
2023-09-04T08:57:48.908Z,22.20
2023-09-04T09:00:17.256Z,22.30
2023-09-04T09:02:44.445Z,22.40
2023-09-04T09:05:14.354Z,22.50
2023-09-04T09:07:42.223Z,22.70
2023-09-04T09:10:15.264Z,22.70
2023-09-04T09:12:41.983Z,22.80
2023-09-04T09:15:08.966Z,23.00
2023-09-04T09:17:35.743Z,23.20
2023-09-04T09:20:02.453Z,23.30
2023-09-04T09:22:29.168Z,23.40
2023-09-04T09:24:58.045Z,23.50
2023-09-04T09:27:27.600Z,23.60
2023-09-04T09:29:58.307Z,23.60
2023-09-04T09:32:29.194Z,23.70
2023-09-04T09:34:58.435Z,23.80
2023-09-04T09:37:27.789Z,23.80
2023-09-04T09:39:54.528Z,23.80
2023-09-04T09:42:21.501Z,24.10
2023-09-04T09:44:48.565Z,24.30
2023-09-04T09:47:15.544Z,24.40
2023-09-04T09:49:42.970Z,24.50
2023-09-04T09:52:10.984Z,24.60
2023-09-04T09:54:41.830Z,24.70
2023-09-04T09:57:11.234Z,24.90
2023-09-04T09:59:39.761Z,25.10
2023-09-04T10:02:07.461Z,25.20
2023-09-04T10:04:35.640Z,25.30
2023-09-04T10:07:04.367Z,25.40
2023-09-04T10:09:45.503Z,25.50
2023-09-04T10:12:42.757Z,25.70
2023-09-04T10:15:11.271Z,25.70
2023-09-04T10:17:47.271Z,25.60
2023-09-04T10:20:15.386Z,25.60
2023-09-04T10:22:48.807Z,25.70
2023-09-04T10:25:27.782Z,25.70
2023-09-04T10:28:08.947Z,25.80
2023-09-04T10:30:37.659Z,25.70
2023-09-04T10:33:05.276Z,25.70
2023-09-04T10:35:33.334Z,25.70
2023-09-04T10:38:00.674Z,25.80
2023-09-04T10:40:29.917Z,26.00
2023-09-04T10:42:57.918Z,26.10
2023-09-04T10:45:26.861Z,25.90
2023-09-04T10:47:54.670Z,26.00
2023-09-04T10:50:40.785Z,25.90
2023-09-04T10:53:09.137Z,26.20
2023-09-04T10:55:37.861Z,26.80
2023-09-04T10:58:05.681Z,28.00
2023-09-04T11:00:35.347Z,29.30
2023-09-04T11:03:21.148Z,30.00
2023-09-04T11:06:03.337Z,30.60
2023-09-04T11:08:31.235Z,31.30
2023-09-04T11:11:03.184Z,31.80
2023-09-04T11:13:30.003Z,31.40
2023-09-04T11:15:57.553Z,30.50
2023-09-04T11:18:30.445Z,30.00
2023-09-04T11:20:57.420Z,29.50
2023-09-04T11:23:29.129Z,29.00
2023-09-04T11:25:57.030Z,28.70
2023-09-04T11:28:26.312Z,28.30
2023-09-04T11:30:54.845Z,28.00
2023-09-04T11:33:23.451Z,27.80
2023-09-04T11:36:00.319Z,27.50
2023-09-04T11:38:29.338Z,27.40
2023-09-04T11:40:56.226Z,27.40
2023-09-04T11:43:28.377Z,27.20
2023-09-04T11:46:00.549Z,27.10
2023-09-04T11:48:28.958Z,27.00
2023-09-04T11:50:56.038Z,27.00
2023-09-04T11:53:23.518Z,27.00
2023-09-04T11:55:54.069Z,26.90
2023-09-04T11:58:22.296Z,26.90
2023-09-04T12:00:48.994Z,26.90
2023-09-04T12:03:15.942Z,26.70
2023-09-04T12:05:43.134Z,26.70
2023-09-04T12:08:10.530Z,26.80
2023-09-04T12:10:38.676Z,26.70
2023-09-04T12:13:21.465Z,26.50
2023-09-04T12:15:48.506Z,26.60
2023-09-04T12:18:16.164Z,26.60
2023-09-04T12:20:44.728Z,26.60
2023-09-04T12:23:11.727Z,26.60
2023-09-04T12:25:45.813Z,26.50
2023-09-04T12:28:14.896Z,26.30
2023-09-04T12:30:47.490Z,26.30
2023-09-04T12:33:17.874Z,26.20
2023-09-04T12:35:45.503Z,26.20
2023-09-04T12:38:12.221Z,26.20
2023-09-04T12:40:38.956Z,26.20
2023-09-04T12:43:06.800Z,26.20
2023-09-04T12:45:33.593Z,26.10
2023-09-04T12:48:01.166Z,26.10
2023-09-04T12:50:28.310Z,26.10
2023-09-04T12:52:55.261Z,26.10
2023-09-04T12:55:23.127Z,26.10
2023-09-04T12:57:49.908Z,26.00
2023-09-04T13:00:16.817Z,26.00
2023-09-04T13:02:44.902Z,26.00
2023-09-04T13:05:12.811Z,25.90
2023-09-04T13:07:39.693Z,25.90
2023-09-04T13:10:06.886Z,25.90
2023-09-04T13:12:33.551Z,25.80
2023-09-04T13:15:00.238Z,25.80
2023-09-04T13:17:27.123Z,25.70
2023-09-04T13:19:53.923Z,25.60
2023-09-04T13:22:20.774Z,25.60
2023-09-04T13:24:47.464Z,25.60
2023-09-04T13:27:14.436Z,25.60
2023-09-04T13:29:41.221Z,25.50
2023-09-04T13:32:08.015Z,25.50
2023-09-04T13:34:34.747Z,25.40
2023-09-04T13:37:01.463Z,25.40
2023-09-04T13:39:28.132Z,25.40
2023-09-04T13:41:55.961Z,25.30
2023-09-04T13:44:24.155Z,25.20
2023-09-04T13:46:50.919Z,25.20
2023-09-04T13:49:17.672Z,25.20
2023-09-04T13:51:44.383Z,25.20
2023-09-04T13:54:11.552Z,25.10
2023-09-04T13:56:38.510Z,25.10
2023-09-04T13:59:05.985Z,25.00
2023-09-04T14:01:32.745Z,25.00
2023-09-04T14:03:59.487Z,25.10
2023-09-04T14:06:26.439Z,25.10
2023-09-04T14:08:53.254Z,25.10
2023-09-04T14:11:19.964Z,25.10
2023-09-04T14:13:46.755Z,25.10
2023-09-04T14:16:14.305Z,25.00
2023-09-04T14:18:41.068Z,25.00
2023-09-04T14:21:08.295Z,25.00
2023-09-04T14:23:35.081Z,24.90
2023-09-04T14:26:01.954Z,25.00
2023-09-04T14:28:28.626Z,25.00
2023-09-04T14:30:55.289Z,25.00
2023-09-04T14:33:22.008Z,25.00
2023-09-04T14:35:59.872Z,25.10
2023-09-04T14:38:26.807Z,25.10
2023-09-04T14:40:55.494Z,25.10
2023-09-04T14:43:22.247Z,25.00
2023-09-04T14:46:03.836Z,25.00
2023-09-04T14:48:34.727Z,24.90
2023-09-04T14:51:05.442Z,24.90
2023-09-04T14:53:32.213Z,24.90
2023-09-04T14:56:02.009Z,24.90
2023-09-04T14:58:29.416Z,24.80
2023-09-04T15:00:56.989Z,24.90
2023-09-04T15:03:23.885Z,24.90
2023-09-04T15:05:59.409Z,24.90
2023-09-04T15:08:28.964Z,25.00
2023-09-04T15:10:57.953Z,24.90
2023-09-04T15:13:25.074Z,24.90
2023-09-04T15:15:52.272Z,24.90
2023-09-04T15:18:19.944Z,24.90
2023-09-04T15:20:46.636Z,24.90
2023-09-04T15:23:13.364Z,24.90
2023-09-04T15:25:40.405Z,24.90
2023-09-04T15:28:07.129Z,24.90
2023-09-04T15:30:33.933Z,24.80
2023-09-04T15:33:00.827Z,24.80
2023-09-04T15:35:27.627Z,24.80
2023-09-04T15:37:54.333Z,24.80
2023-09-04T15:40:21.065Z,24.80
2023-09-04T15:42:47.823Z,24.70
2023-09-04T15:45:14.563Z,24.70
2023-09-04T15:47:43.446Z,24.70
2023-09-04T15:50:10.540Z,24.60
2023-09-04T15:52:37.558Z,24.60
2023-09-04T15:55:04.649Z,24.60
2023-09-04T15:57:31.413Z,24.60
2023-09-04T15:59:58.102Z,24.60
2023-09-04T16:02:24.871Z,24.60
2023-09-04T16:04:51.676Z,24.60
2023-09-04T16:07:18.396Z,24.60
2023-09-04T16:09:45.090Z,24.60
2023-09-04T16:12:11.818Z,24.50
2023-09-04T16:14:38.513Z,24.60
2023-09-04T16:17:05.311Z,24.60
2023-09-04T16:19:32.071Z,24.60
2023-09-04T16:21:58.786Z,24.50
2023-09-04T16:24:27.073Z,24.50
2023-09-04T16:26:53.858Z,24.50
2023-09-04T16:29:20.650Z,24.40
2023-09-04T16:31:47.365Z,24.40
2023-09-04T16:34:14.253Z,24.40
2023-09-04T16:36:40.932Z,24.30
2023-09-04T16:39:07.687Z,24.30
2023-09-04T16:41:34.454Z,24.40
2023-09-04T16:44:03.882Z,24.40
2023-09-04T16:46:32.030Z,24.40
2023-09-04T16:48:59.857Z,24.40
2023-09-04T16:51:26.585Z,24.30
2023-09-04T16:53:53.319Z,24.30
2023-09-04T16:56:20.768Z,24.20
2023-09-04T16:58:47.506Z,24.20
2023-09-04T17:01:14.380Z,24.10
2023-09-04T17:03:41.294Z,24.10
2023-09-04T17:06:08.127Z,24.10
2023-09-04T17:08:34.802Z,24.10
2023-09-04T17:11:02.812Z,24.10
2023-09-04T17:13:29.605Z,24.00
2023-09-04T17:15:56.408Z,23.90
2023-09-04T17:18:23.485Z,23.90
2023-09-04T17:20:50.367Z,23.80
2023-09-04T17:23:17.645Z,23.70
2023-09-04T17:25:44.918Z,23.60
2023-09-04T17:28:11.635Z,23.60
2023-09-04T17:30:38.363Z,23.50
2023-09-04T17:33:05.482Z,23.40
2023-09-04T17:35:33.637Z,23.30
2023-09-04T17:38:00.992Z,23.30
2023-09-04T17:40:27.747Z,23.20
2023-09-04T17:42:54.504Z,23.20
2023-09-04T17:45:21.238Z,23.10
2023-09-04T17:47:47.932Z,23.10
2023-09-04T17:50:14.702Z,23.00
2023-09-04T17:52:41.378Z,23.00
2023-09-04T17:55:08.374Z,22.90
2023-09-04T17:57:35.071Z,22.80
2023-09-04T18:00:01.838Z,22.80
2023-09-04T18:02:28.625Z,22.70
2023-09-04T18:04:55.380Z,22.60
2023-09-04T18:07:22.060Z,22.60
2023-09-04T18:09:48.726Z,22.50
2023-09-04T18:12:15.438Z,22.40
2023-09-04T18:14:42.218Z,22.30
2023-09-04T18:17:08.953Z,22.30
2023-09-04T18:19:37.194Z,22.20
2023-09-04T18:22:06.240Z,22.10
2023-09-04T18:24:33.258Z,22.00
2023-09-04T18:27:02.064Z,22.00
2023-09-04T18:29:29.054Z,21.90
2023-09-04T18:31:55.841Z,21.80
2023-09-04T18:34:22.644Z,21.80
2023-09-04T18:36:49.366Z,21.70
2023-09-04T18:39:16.093Z,21.60
2023-09-04T18:41:43.089Z,21.60
2023-09-04T18:44:09.761Z,21.60
2023-09-04T18:46:36.534Z,21.60
2023-09-04T18:49:03.343Z,21.50
2023-09-04T18:51:30.052Z,21.50
2023-09-04T18:53:56.726Z,21.50
2023-09-04T18:56:23.414Z,21.40
2023-09-04T18:58:50.878Z,21.30
2023-09-04T19:01:17.673Z,21.20
2023-09-04T19:03:44.635Z,21.20
2023-09-04T19:06:11.386Z,21.10
2023-09-04T19:08:38.151Z,21.00
2023-09-04T19:11:05.870Z,21.00
2023-09-04T19:13:33.396Z,21.00
2023-09-04T19:16:03.142Z,20.90
2023-09-04T19:18:29.917Z,20.90
2023-09-04T19:20:56.615Z,20.80
2023-09-04T19:23:23.328Z,20.80
2023-09-04T19:25:50.012Z,20.70
2023-09-04T19:28:16.704Z,20.70
2023-09-04T19:30:43.506Z,20.60
2023-09-04T19:33:10.276Z,20.60
2023-09-04T19:35:37.031Z,20.60
2023-09-04T19:38:06.016Z,20.50
2023-09-04T19:40:32.832Z,20.50
2023-09-04T19:43:00.155Z,20.40
2023-09-04T19:45:27.078Z,20.40
2023-09-04T19:47:53.856Z,20.30
2023-09-04T19:50:21.150Z,20.30
2023-09-04T19:52:47.866Z,20.30
2023-09-04T19:55:14.550Z,20.20
2023-09-04T19:57:42.487Z,20.20
2023-09-04T20:00:09.530Z,20.10
2023-09-04T20:02:36.652Z,20.10
2023-09-04T20:05:03.521Z,20.00
2023-09-04T20:07:30.671Z,20.00
2023-09-04T20:09:58.055Z,20.00
2023-09-04T20:12:24.941Z,19.90
2023-09-04T20:14:51.731Z,19.90
2023-09-04T20:17:18.496Z,19.90
2023-09-04T20:19:45.219Z,19.80
2023-09-04T20:22:11.966Z,19.80
2023-09-04T20:24:38.699Z,19.80
2023-09-04T20:27:05.836Z,19.80
2023-09-04T20:29:32.561Z,19.70
2023-09-04T20:31:59.298Z,19.70
2023-09-04T20:34:26.448Z,19.60
2023-09-04T20:36:58.153Z,19.50
2023-09-04T20:39:25.031Z,19.50
2023-09-04T20:41:51.788Z,19.50
2023-09-04T20:44:18.527Z,19.40
2023-09-04T20:46:45.312Z,19.40
2023-09-04T20:49:12.038Z,19.30
2023-09-04T20:51:38.715Z,19.30
2023-09-04T20:54:05.405Z,19.30
2023-09-04T20:56:32.172Z,19.30
2023-09-04T20:58:58.855Z,19.30
2023-09-04T21:01:25.582Z,19.30
2023-09-04T21:03:52.272Z,19.30
2023-09-04T21:06:18.975Z,19.20
2023-09-04T21:08:45.651Z,19.10
2023-09-04T21:11:12.341Z,19.10
2023-09-04T21:13:57.488Z,19.10
2023-09-04T21:16:42.968Z,19.10
2023-09-04T21:19:28.646Z,19.00
2023-09-04T21:22:14.186Z,19.00
2023-09-04T21:24:59.737Z,18.90
2023-09-04T21:27:45.076Z,18.90
2023-09-04T21:30:30.760Z,18.90
2023-09-04T21:33:16.381Z,18.80
2023-09-04T21:36:01.947Z,18.80
2023-09-04T21:38:47.364Z,18.80
2023-09-04T21:41:32.892Z,18.70
2023-09-04T21:44:18.364Z,18.70
2023-09-04T21:47:03.925Z,18.70
2023-09-04T21:49:49.370Z,18.60
2023-09-04T21:52:34.957Z,18.60
2023-09-04T21:55:20.375Z,18.60
2023-09-04T21:58:07.738Z,18.60
2023-09-04T22:00:53.330Z,18.50
2023-09-04T22:03:38.855Z,18.50
2023-09-04T22:06:24.739Z,18.50
2023-09-04T22:09:10.196Z,18.40
2023-09-04T22:11:55.834Z,18.40
2023-09-04T22:14:41.426Z,18.40
2023-09-04T22:17:27.006Z,18.30
2023-09-04T22:20:12.587Z,18.40
2023-09-04T22:22:58.229Z,18.40
2023-09-04T22:25:43.646Z,18.30
2023-09-04T22:28:29.222Z,18.30
2023-09-04T22:31:14.651Z,18.30
2023-09-04T22:34:00.231Z,18.30
2023-09-04T22:36:45.641Z,18.30
2023-09-04T22:39:31.211Z,18.30
2023-09-04T22:42:16.658Z,18.20
2023-09-04T22:45:02.054Z,18.20
2023-09-04T22:47:47.621Z,18.30
2023-09-04T22:50:33.109Z,18.20
2023-09-04T22:53:18.550Z,18.20
2023-09-04T22:56:04.048Z,18.10
2023-09-04T22:58:49.523Z,18.10
2023-09-04T23:01:35.009Z,18.10
2023-09-04T23:04:20.459Z,18.10
2023-09-04T23:07:06.002Z,18.10
2023-09-04T23:09:51.383Z,18.00
2023-09-04T23:12:36.877Z,18.00
2023-09-04T23:15:22.453Z,18.00
2023-09-04T23:18:07.970Z,18.00
2023-09-04T23:20:53.497Z,17.90
2023-09-04T23:23:22.676Z,17.90
2023-09-04T23:25:49.679Z,17.90
2023-09-04T23:28:19.270Z,17.90
2023-09-04T23:30:47.040Z,17.90
2023-09-04T23:33:16.753Z,17.90
2023-09-04T23:36:02.071Z,17.90
2023-09-04T23:38:41.800Z,17.90
2023-09-04T23:41:27.346Z,17.80
2023-09-04T23:44:12.718Z,17.80
2023-09-04T23:46:39.506Z,17.80
2023-09-04T23:49:06.208Z,17.80
2023-09-04T23:51:32.884Z,17.70
2023-09-04T23:54:00.494Z,17.70
2023-09-04T23:56:28.163Z,17.70
2023-09-04T23:58:55.166Z,17.70
